Time,TemperatureF,DewpointF,PressureIn,WindDirection,WindDirectionDegrees,WindSpeedMPH,WindSpeedGustMPH,Humidity,HourlyPrecipIn,Conditions,Clouds,dailyrainin,SoftwareType,DateUTC
2013-12-26 00:01:00,27.1,23.0,30.40,SE,128,0.0,2.0,84,0.00,,,0.00,meteobridge,2013-12-26 05:01:00,
2013-12-26 00:02:00,27.1,23.0,30.40,SE,128,0.9,0.9,84,0.00,,,0.00,meteobridge,2013-12-26 05:02:00,
2013-12-26 00:06:00,27.3,23.2,30.40,SE,128,0.9,2.0,84,0.00,,,0.00,meteobridge,2013-12-26 05:06:00,
2013-12-26 00:11:00,27.5,23.4,30.40,SE,128,0.9,0.9,84,0.00,,,0.00,meteobridge,2013-12-26 05:11:00,
2013-12-26 00:16:00,27.7,23.2,30.40,SE,128,0.0,0.9,83,0.00,,,0.00,meteobridge,2013-12-26 05:16:00,
2013-12-26 00:22:00,27.9,23.7,30.40,SE,128,0.0,0.9,84,0.00,,,0.00,meteobridge,2013-12-26 05:22:00,
2013-12-26 00:27:00,27.9,23.0,30.39,SE,128,0.0,0.0,82,0.00,,,0.00,meteobridge,2013-12-26 05:27:00,
2013-12-26 00:32:00,28.0,23.5,30.39,SE,128,0.0,0.9,83,0.00,,,0.00,meteobridge,2013-12-26 05:32:00,
2013-12-26 00:37:00,28.2,24.1,30.38,SE,128,0.0,0.9,84,0.00,,,0.00,meteobridge,2013-12-26 05:37:00,
2013-12-26 00:42:00,28.2,23.4,30.38,SE,128,0.0,0.9,82,0.00,,,0.00,meteobridge,2013-12-26 05:42:00,
2013-12-26 00:48:00,28.6,24.1,30.38,SE,128,0.0,0.9,83,0.00,,,0.00,meteobridge,2013-12-26 05:48:00,
2013-12-26 00:53:00,28.6,24.1,30.38,SE,128,0.9,0.9,83,0.00,,,0.00,meteobridge,2013-12-26 05:53:00,
2013-12-26 00:58:00,28.6,23.5,30.38,SE,128,0.0,0.0,81,0.00,,,0.00,meteobridge,2013-12-26 05:58:00,
2013-12-26 01:03:00,28.8,23.9,30.38,SE,128,0.9,0.9,82,0.00,,,0.00,meteobridge,2013-12-26 06:03:00,
2013-12-26 01:09:00,28.8,23.9,30.38,SE,128,0.0,0.0,82,0.00,,,0.00,meteobridge,2013-12-26 06:09:00,
2013-12-26 01:14:00,28.9,23.9,30.37,SE,128,0.0,2.0,81,0.00,,,0.00,meteobridge,2013-12-26 06:14:00,
2013-12-26 01:19:00,28.9,23.9,30.37,ESE,121,0.0,2.0,81,0.00,,,0.00,meteobridge,2013-12-26 06:19:00,
2013-12-26 01:24:00,29.1,24.3,30.37,ESE,121,0.0,0.9,82,0.00,,,0.00,meteobridge,2013-12-26 06:24:00,
2013-12-26 01:30:00,29.1,24.1,30.37,ESE,121,0.9,0.9,81,0.00,,,0.00,meteobridge,2013-12-26 06:30:00,
2013-12-26 01:35:00,29.3,24.3,30.36,ESE,121,0.0,0.9,81,0.00,,,0.00,meteobridge,2013-12-26 06:35:00,
2013-12-26 01:40:00,29.5,24.4,30.37,SSE,158,0.0,0.9,81,0.00,,,0.00,meteobridge,2013-12-26 06:40:00,
2013-12-26 01:45:00,29.5,24.4,30.37,SSE,158,0.9,0.9,81,0.00,,,0.00,meteobridge,2013-12-26 06:45:00,
2013-12-26 01:50:00,29.5,24.4,30.37,SSE,158,0.0,0.9,81,0.00,,,0.00,meteobridge,2013-12-26 06:50:00,
2013-12-26 01:55:00,29.7,24.6,30.36,SSE,158,0.9,0.9,81,0.00,,,0.00,meteobridge,2013-12-26 06:55:00,
2013-12-26 02:00:00,29.7,24.3,30.35,SSE,158,0.0,0.9,80,0.00,,,0.00,meteobridge,2013-12-26 07:00:00,
2013-12-26 02:05:00,29.8,24.1,30.35,SSE,157,0.0,0.0,79,0.00,,,0.00,meteobridge,2013-12-26 07:05:00,
2013-12-26 02:10:00,30.0,25.0,30.36,SSE,158,0.0,0.0,81,0.00,,,0.00,meteobridge,2013-12-26 07:10:00,
2013-12-26 02:15:00,30.0,25.0,30.35,SSE,158,0.9,0.9,81,0.00,,,0.00,meteobridge,2013-12-26 07:15:00,
2013-12-26 02:21:00,30.2,24.8,30.35,South,184,2.9,2.9,80,0.00,,,0.00,meteobridge,2013-12-26 07:21:00,
2013-12-26 02:26:00,30.4,25.3,30.35,South,188,0.0,0.0,81,0.00,,,0.00,meteobridge,2013-12-26 07:26:00,
2013-12-26 02:31:00,30.4,25.0,30.35,South,188,0.0,0.0,80,0.00,,,0.00,meteobridge,2013-12-26 07:31:00,
2013-12-26 02:36:00,30.6,25.2,30.34,South,188,0.9,0.9,80,0.00,,,0.00,meteobridge,2013-12-26 07:36:00,
2013-12-26 02:41:00,30.6,25.3,30.34,South,188,0.0,0.9,81,0.00,,,0.00,meteobridge,2013-12-26 07:41:00,
2013-12-26 02:46:00,30.6,24.8,30.34,South,188,0.0,0.0,79,0.00,,,0.00,meteobridge,2013-12-26 07:46:00,
2013-12-26 02:51:00,30.7,25.0,30.34,South,188,0.0,0.0,79,0.00,,,0.00,meteobridge,2013-12-26 07:51:00,
2013-12-26 02:57:00,30.7,25.0,30.35,South,188,0.0,0.9,79,0.00,,,0.00,meteobridge,2013-12-26 07:57:00,
2013-12-26 03:02:00,30.9,25.7,30.34,South,188,0.0,2.0,81,0.00,,,0.00,meteobridge,2013-12-26 08:02:00,
2013-12-26 03:07:00,30.9,25.5,30.34,South,188,0.0,0.9,80,0.00,,,0.00,meteobridge,2013-12-26 08:07:00,
2013-12-26 03:12:00,30.9,25.7,30.33,South,188,0.9,0.9,81,0.00,,,0.00,meteobridge,2013-12-26 08:12:00,
2013-12-26 03:17:00,30.9,25.5,30.34,South,188,0.0,0.9,80,0.00,,,0.00,meteobridge,2013-12-26 08:17:00,
2013-12-26 03:22:00,30.9,24.8,30.33,South,188,0.0,0.0,78,0.00,,,0.00,meteobridge,2013-12-26 08:22:00,
2013-12-26 03:27:00,31.1,25.3,30.34,South,188,0.0,0.0,79,0.00,,,0.00,meteobridge,2013-12-26 08:27:00,
2013-12-26 03:32:00,31.3,25.9,30.33,South,188,0.0,0.0,80,0.00,,,0.00,meteobridge,2013-12-26 08:32:00,
2013-12-26 03:37:00,31.3,25.5,30.34,South,188,0.9,0.9,79,0.00,,,0.00,meteobridge,2013-12-26 08:37:00,
2013-12-26 03:43:00,31.5,26.1,30.33,South,188,0.9,0.9,80,0.00,,,0.00,meteobridge,2013-12-26 08:43:00,
2013-12-26 03:48:00,31.6,25.9,30.34,South,188,0.0,0.0,79,0.00,,,0.00,meteobridge,2013-12-26 08:48:00,
2013-12-26 03:53:00,31.6,25.9,30.33,South,188,0.0,0.9,79,0.00,,,0.00,meteobridge,2013-12-26 08:53:00,
2013-12-26 03:59:00,31.8,26.1,30.33,South,188,0.0,0.0,79,0.00,,,0.00,meteobridge,2013-12-26 08:59:00,
2013-12-26 04:04:00,31.8,26.1,30.34,South,188,0.0,0.9,79,0.00,,,0.00,meteobridge,2013-12-26 09:04:00,
2013-12-26 04:09:00,31.8,26.1,30.33,SW,221,0.0,2.0,79,0.00,,,0.00,meteobridge,2013-12-26 09:09:00,
2013-12-26 04:14:00,31.8,26.1,30.33,SW,221,0.0,0.9,79,0.00,,,0.00,meteobridge,2013-12-26 09:14:00,
2013-12-26 04:19:00,31.8,26.4,30.33,SW,221,0.9,0.9,80,0.00,,,0.00,meteobridge,2013-12-26 09:19:00,
2013-12-26 04:24:00,31.8,26.4,30.33,SW,221,0.0,0.9,80,0.00,,,0.00,meteobridge,2013-12-26 09:24:00,
2013-12-26 04:29:00,31.8,26.4,30.32,WSW,249,0.9,2.0,80,0.00,,,0.00,meteobridge,2013-12-26 09:29:00,
2013-12-26 04:35:00,31.8,26.4,30.33,WNW,284,0.9,2.0,80,0.00,,,0.00,meteobridge,2013-12-26 09:35:00,
2013-12-26 04:40:00,32.0,26.6,30.32,WNW,284,0.9,0.9,80,0.00,,,0.00,meteobridge,2013-12-26 09:40:00,
2013-12-26 04:45:00,32.2,26.1,30.32,WNW,284,0.9,0.9,78,0.00,,,0.00,meteobridge,2013-12-26 09:45:00,
2013-12-26 04:50:00,32.2,26.1,30.32,WNW,284,0.0,0.0,78,0.00,,,0.00,meteobridge,2013-12-26 09:50:00,
2013-12-26 04:55:00,32.2,26.1,30.32,WNW,284,0.0,0.9,78,0.00,,,0.00,meteobridge,2013-12-26 09:55:00,
2013-12-26 05:00:00,32.2,26.1,30.32,WNW,284,0.9,0.9,78,0.00,,,0.00,meteobridge,2013-12-26 10:00:00,
2013-12-26 05:05:00,32.2,26.1,30.32,WNW,284,0.0,0.0,78,0.00,,,0.00,meteobridge,2013-12-26 10:05:00,
2013-12-26 05:10:00,32.2,25.5,30.32,WNW,284,0.9,0.9,76,0.00,,,0.00,meteobridge,2013-12-26 10:10:00,
2013-12-26 05:15:00,32.2,25.5,30.32,WNW,284,0.9,0.9,76,0.00,,,0.00,meteobridge,2013-12-26 10:15:00,
2013-12-26 05:20:00,32.4,25.7,30.32,WNW,284,0.9,0.9,76,0.00,,,0.00,meteobridge,2013-12-26 10:20:00,
2013-12-26 05:25:00,32.4,25.7,30.32,WNW,284,0.9,0.9,76,0.00,,,0.00,meteobridge,2013-12-26 10:25:00,
2013-12-26 05:30:00,32.4,25.7,30.32,WNW,284,0.0,0.0,76,0.00,,,0.00,meteobridge,2013-12-26 10:30:00,
2013-12-26 05:35:00,32.4,25.7,30.32,WNW,284,0.0,0.9,76,0.00,,,0.00,meteobridge,2013-12-26 10:35:00,
2013-12-26 05:40:00,32.4,25.7,30.32,WNW,284,0.0,0.0,76,0.00,,,0.00,meteobridge,2013-12-26 10:40:00,
2013-12-26 05:45:00,32.4,25.7,30.31,WNW,284,0.0,0.0,76,0.00,,,0.00,meteobridge,2013-12-26 10:45:00,
2013-12-26 05:51:00,32.5,25.9,30.32,WNW,284,0.0,0.9,76,0.00,,,0.00,meteobridge,2013-12-26 10:51:00,
2013-12-26 05:56:00,32.5,25.5,30.32,WNW,284,0.0,0.0,75,0.00,,,0.00,meteobridge,2013-12-26 10:56:00,
2013-12-26 06:01:00,32.5,25.5,30.32,WNW,283,0.0,0.9,75,0.00,,,0.00,meteobridge,2013-12-26 11:01:00,
2013-12-26 06:06:00,32.7,25.7,30.32,WNW,283,0.0,0.0,75,0.00,,,0.00,meteobridge,2013-12-26 11:06:00,
2013-12-26 06:11:00,32.7,25.3,30.32,WNW,283,0.0,0.9,74,0.00,,,0.00,meteobridge,2013-12-26 11:11:00,
2013-12-26 06:17:00,32.7,25.7,30.32,WNW,283,0.9,0.9,75,0.00,,,0.00,meteobridge,2013-12-26 11:17:00,
2013-12-26 06:22:00,32.7,25.7,30.32,WNW,284,0.9,0.9,75,0.00,,,0.00,meteobridge,2013-12-26 11:22:00,
2013-12-26 06:27:00,32.5,27.3,30.32,WNW,284,0.9,0.9,81,0.00,,,0.00,meteobridge,2013-12-26 11:27:00,
2013-12-26 06:32:00,32.4,28.0,30.32,WNW,284,0.9,0.9,84,0.00,,,0.00,meteobridge,2013-12-26 11:32:00,
2013-12-26 06:37:00,32.2,28.4,30.32,WNW,284,0.9,0.9,86,0.00,,,0.00,meteobridge,2013-12-26 11:37:00,
2013-12-26 06:42:00,32.0,28.6,30.31,WNW,289,2.0,2.0,87,0.00,,,0.00,meteobridge,2013-12-26 11:42:00,
2013-12-26 06:48:00,31.8,28.4,30.32,West,277,2.0,2.0,87,0.00,,,0.00,meteobridge,2013-12-26 11:48:00,
2013-12-26 06:53:00,32.0,29.7,30.32,SSW,202,0.9,2.0,91,0.01,,,0.01,meteobridge,2013-12-26 11:53:00,
2013-12-26 06:58:00,31.8,29.5,30.33,SSW,202,0.9,2.0,91,0.01,,,0.01,meteobridge,2013-12-26 11:58:00,
2013-12-26 07:03:00,31.8,29.5,30.34,SSW,202,0.9,0.9,91,0.02,,,0.02,meteobridge,2013-12-26 12:03:00,
2013-12-26 07:08:00,31.6,29.3,30.34,SSW,202,0.0,0.0,91,0.02,,,0.02,meteobridge,2013-12-26 12:08:00,
2013-12-26 07:13:00,31.6,29.7,30.33,SSW,202,0.0,0.9,92,0.02,,,0.02,meteobridge,2013-12-26 12:13:00,
2013-12-26 07:19:00,31.6,29.7,30.33,SSW,202,0.0,0.0,92,0.02,,,0.02,meteobridge,2013-12-26 12:19:00,
2013-12-26 07:24:00,31.8,29.8,30.34,SSW,202,0.9,0.9,92,0.02,,,0.02,meteobridge,2013-12-26 12:24:00,
2013-12-26 07:29:00,32.0,30.2,30.34,SSW,202,0.9,0.9,93,0.03,,,0.03,meteobridge,2013-12-26 12:29:00,
2013-12-26 07:34:00,32.0,30.2,30.34,SSW,197,0.0,2.0,93,0.03,,,0.03,meteobridge,2013-12-26 12:34:00,
2013-12-26 07:39:00,31.8,30.0,30.33,East,88,0.9,0.9,93,0.04,,,0.04,meteobridge,2013-12-26 12:39:00,
2013-12-26 07:45:00,32.0,30.6,30.34,East,85,0.9,0.9,94,0.04,,,0.04,meteobridge,2013-12-26 12:45:00,
2013-12-26 07:50:00,32.0,30.6,30.34,East,85,0.0,0.0,94,0.03,,,0.04,meteobridge,2013-12-26 12:50:00,
2013-12-26 07:55:00,32.0,30.6,30.34,East,85,0.0,2.0,94,0.03,,,0.04,meteobridge,2013-12-26 12:55:00,
2013-12-26 08:00:00,32.0,30.6,30.34,East,85,0.0,0.0,94,0.03,,,0.04,meteobridge,2013-12-26 13:00:00,
2013-12-26 08:01:00,32.0,30.6,30.34,East,85,0.9,0.9,94,0.02,,,0.04,meteobridge,2013-12-26 13:01:00,
2013-12-26 08:07:00,32.0,30.6,30.35,East,85,0.0,0.9,94,0.02,,,0.04,meteobridge,2013-12-26 13:07:00,
2013-12-26 08:12:00,32.2,30.6,30.34,East,85,0.0,0.0,94,0.02,,,0.04,meteobridge,2013-12-26 13:12:00,
2013-12-26 08:17:00,32.2,30.6,30.34,East,85,0.0,0.0,94,0.02,,,0.04,meteobridge,2013-12-26 13:17:00,
2013-12-26 08:22:00,32.4,31.1,30.34,East,85,0.0,0.0,95,0.02,,,0.04,meteobridge,2013-12-26 13:22:00,
2013-12-26 08:27:00,32.4,30.7,30.34,East,85,0.0,0.9,94,0.01,,,0.04,meteobridge,2013-12-26 13:27:00,
2013-12-26 08:32:00,32.4,30.7,30.34,East,85,0.9,0.9,94,0.01,,,0.04,meteobridge,2013-12-26 13:32:00,
2013-12-26 08:37:00,32.4,31.1,30.34,East,85,0.9,0.9,95,0.00,,,0.04,meteobridge,2013-12-26 13:37:00,
2013-12-26 08:42:00,32.5,31.3,30.34,East,85,0.0,0.0,95,0.01,,,0.05,meteobridge,2013-12-26 13:42:00,
2013-12-26 08:48:00,32.5,31.3,30.33,East,85,0.0,0.0,95,0.01,,,0.05,meteobridge,2013-12-26 13:48:00,
2013-12-26 08:53:00,32.5,31.3,30.33,East,85,0.0,0.0,95,0.01,,,0.05,meteobridge,2013-12-26 13:53:00,
2013-12-26 08:58:00,32.7,31.5,30.34,East,85,0.0,0.0,95,0.01,,,0.05,meteobridge,2013-12-26 13:58:00,
2013-12-26 09:03:00,32.7,31.5,30.34,East,85,0.0,0.0,95,0.01,,,0.05,meteobridge,2013-12-26 14:03:00,
2013-12-26 09:08:00,32.9,31.3,30.34,East,85,0.0,0.0,94,0.01,,,0.05,meteobridge,2013-12-26 14:08:00,
2013-12-26 09:13:00,32.9,31.3,30.34,East,85,0.0,0.9,94,0.01,,,0.05,meteobridge,2013-12-26 14:13:00,
2013-12-26 09:18:00,33.1,31.8,30.35,East,85,0.9,0.9,95,0.01,,,0.05,meteobridge,2013-12-26 14:18:00,
2013-12-26 09:23:00,33.1,31.5,30.35,East,85,0.0,0.9,94,0.01,,,0.05,meteobridge,2013-12-26 14:23:00,
2013-12-26 09:28:00,33.1,31.8,30.35,East,85,0.0,0.0,95,0.01,,,0.05,meteobridge,2013-12-26 14:28:00,
2013-12-26 09:33:00,33.3,32.0,30.35,East,85,0.0,0.0,95,0.01,,,0.05,meteobridge,2013-12-26 14:33:00,
2013-12-26 09:39:00,33.3,32.0,30.35,East,85,0.0,0.0,95,0.00,,,0.05,meteobridge,2013-12-26 14:39:00,
2013-12-26 09:44:00,33.4,32.2,30.36,East,85,0.0,2.0,95,0.00,,,0.05,meteobridge,2013-12-26 14:44:00,
2013-12-26 09:49:00,33.4,31.8,30.35,East,85,0.9,0.9,94,0.00,,,0.05,meteobridge,2013-12-26 14:49:00,
2013-12-26 09:54:00,33.6,32.4,30.35,East,85,0.0,0.0,95,0.00,,,0.05,meteobridge,2013-12-26 14:54:00,
2013-12-26 10:00:00,33.6,32.0,30.35,East,85,0.0,0.0,94,0.00,,,0.05,meteobridge,2013-12-26 15:00:00,
2013-12-26 10:05:00,33.6,32.0,30.35,East,85,0.0,0.9,94,0.00,,,0.05,meteobridge,2013-12-26 15:05:00,
2013-12-26 10:10:00,34.0,32.4,30.35,East,85,0.0,0.0,94,0.00,,,0.05,meteobridge,2013-12-26 15:10:00,
2013-12-26 10:15:00,34.0,32.4,30.35,East,85,0.0,0.0,94,0.00,,,0.05,meteobridge,2013-12-26 15:15:00,
2013-12-26 10:21:00,34.2,32.5,30.35,East,85,0.0,0.0,94,0.00,,,0.05,meteobridge,2013-12-26 15:21:00,
2013-12-26 10:26:00,34.3,32.7,30.35,East,85,0.0,0.9,94,0.00,,,0.05,meteobridge,2013-12-26 15:26:00,
2013-12-26 10:31:00,34.5,32.9,30.35,East,85,0.0,0.0,94,0.00,,,0.05,meteobridge,2013-12-26 15:31:00,
2013-12-26 10:36:00,34.5,32.4,30.35,East,85,0.0,0.0,92,0.00,,,0.05,meteobridge,2013-12-26 15:36:00,
2013-12-26 10:41:00,35.1,32.9,30.34,East,85,0.0,0.0,92,0.00,,,0.05,meteobridge,2013-12-26 15:41:00,
2013-12-26 10:47:00,35.4,33.8,30.34,East,85,0.0,0.0,94,0.00,,,0.05,meteobridge,2013-12-26 15:47:00,
2013-12-26 10:52:00,35.4,33.1,30.34,East,85,0.0,0.9,91,0.00,,,0.05,meteobridge,2013-12-26 15:52:00,
2013-12-26 10:57:00,35.8,32.9,30.34,East,85,0.0,0.9,89,0.00,,,0.05,meteobridge,2013-12-26 15:57:00,
2013-12-26 11:02:00,36.1,33.3,30.34,East,85,0.0,0.9,89,0.00,,,0.05,meteobridge,2013-12-26 16:02:00,
2013-12-26 11:07:00,36.1,33.4,30.34,East,85,0.0,0.9,90,0.00,,,0.05,meteobridge,2013-12-26 16:07:00,
2013-12-26 11:12:00,36.7,34.0,30.34,East,85,0.9,0.9,90,0.00,,,0.05,meteobridge,2013-12-26 16:12:00,
2013-12-26 11:17:00,36.7,33.4,30.33,East,85,0.0,0.9,88,0.00,,,0.05,meteobridge,2013-12-26 16:17:00,
2013-12-26 11:22:00,37.0,33.8,30.33,East,85,0.0,0.9,88,0.00,,,0.05,meteobridge,2013-12-26 16:22:00,
2013-12-26 11:27:00,37.0,33.8,30.33,SE,133,0.9,2.0,88,0.00,,,0.05,meteobridge,2013-12-26 16:27:00,
2013-12-26 11:32:00,37.9,35.1,30.32,SE,133,0.9,0.9,89,0.00,,,0.05,meteobridge,2013-12-26 16:32:00,
2013-12-26 11:38:00,38.1,34.5,30.32,SE,133,0.9,2.0,87,0.00,,,0.05,meteobridge,2013-12-26 16:38:00,
2013-12-26 11:43:00,38.7,34.9,30.32,SE,141,0.9,2.0,86,0.00,,,0.05,meteobridge,2013-12-26 16:43:00,
2013-12-26 11:48:00,38.8,34.7,30.32,South,182,2.0,2.9,85,0.00,,,0.05,meteobridge,2013-12-26 16:48:00,
2013-12-26 11:53:00,38.8,34.7,30.31,South,182,0.0,0.0,85,0.00,,,0.05,meteobridge,2013-12-26 16:53:00,
2013-12-26 11:58:00,39.6,36.0,30.30,South,182,0.0,0.9,87,0.00,,,0.05,meteobridge,2013-12-26 16:58:00,
2013-12-26 12:03:00,39.9,36.1,30.30,South,182,0.9,2.0,86,0.00,,,0.05,meteobridge,2013-12-26 17:03:00,
2013-12-26 12:08:00,40.1,35.4,30.30,South,182,0.9,0.9,83,0.00,,,0.05,meteobridge,2013-12-26 17:08:00,
2013-12-26 12:13:00,40.6,36.0,30.30,East,96,0.0,2.0,83,0.00,,,0.05,meteobridge,2013-12-26 17:13:00,
2013-12-26 12:18:00,41.4,36.5,30.29,ESE,104,0.0,2.0,83,0.00,,,0.05,meteobridge,2013-12-26 17:18:00,
2013-12-26 12:23:00,42.1,35.8,30.29,SSW,199,0.9,2.0,78,0.00,,,0.05,meteobridge,2013-12-26 17:23:00,
2013-12-26 12:28:00,42.1,35.8,30.29,SSW,199,0.9,0.9,78,0.00,,,0.05,meteobridge,2013-12-26 17:28:00,
2013-12-26 12:33:00,42.3,34.9,30.29,SSW,199,0.0,2.0,75,0.00,,,0.05,meteobridge,2013-12-26 17:33:00,
2013-12-26 12:38:00,42.3,36.0,30.28,SSW,199,0.9,2.0,78,0.00,,,0.05,meteobridge,2013-12-26 17:38:00,
2013-12-26 12:43:00,42.3,36.0,30.28,South,170,0.0,0.9,78,0.00,,,0.05,meteobridge,2013-12-26 17:43:00,
2013-12-26 12:49:00,42.3,36.0,30.28,SSW,198,0.0,0.9,78,0.00,,,0.05,meteobridge,2013-12-26 17:49:00,
2013-12-26 12:54:00,42.6,37.6,30.28,SSW,192,0.9,0.9,82,0.00,,,0.05,meteobridge,2013-12-26 17:54:00,
2013-12-26 12:59:00,43.0,37.2,30.27,WSW,240,0.0,2.0,80,0.00,,,0.05,meteobridge,2013-12-26 17:59:00,
2013-12-26 13:04:00,43.0,36.9,30.27,SE,133,0.9,2.0,79,0.00,,,0.05,meteobridge,2013-12-26 18:04:00,
2013-12-26 13:09:00,43.3,36.7,30.27,SSW,208,0.9,2.0,77,0.00,,,0.05,meteobridge,2013-12-26 18:09:00,
2013-12-26 13:14:00,43.9,37.8,30.27,SSW,213,2.0,2.9,79,0.00,,,0.05,meteobridge,2013-12-26 18:14:00,
2013-12-26 13:19:00,44.2,37.2,30.26,East,96,2.0,2.9,76,0.00,,,0.05,meteobridge,2013-12-26 18:19:00,
2013-12-26 13:24:00,44.8,37.8,30.26,South,175,0.0,2.0,76,0.00,,,0.05,meteobridge,2013-12-26 18:24:00,
2013-12-26 13:29:00,45.3,38.5,30.26,South,181,2.0,2.0,77,0.00,,,0.05,meteobridge,2013-12-26 18:29:00,
2013-12-26 13:34:00,45.9,37.4,30.26,South,189,0.9,2.0,72,0.00,,,0.05,meteobridge,2013-12-26 18:34:00,
2013-12-26 13:39:00,46.0,37.2,30.26,ESE,119,2.0,2.9,71,0.00,,,0.05,meteobridge,2013-12-26 18:39:00,
2013-12-26 13:45:00,46.0,36.5,30.26,SSW,199,2.0,2.0,69,0.00,,,0.05,meteobridge,2013-12-26 18:45:00,
2013-12-26 13:50:00,46.8,36.0,30.25,WNW,286,2.0,2.9,66,0.00,,,0.05,meteobridge,2013-12-26 18:50:00,
2013-12-26 13:55:00,47.1,36.0,30.25,SSE,158,0.9,2.0,65,0.00,,,0.05,meteobridge,2013-12-26 18:55:00,
2013-12-26 14:00:00,47.7,35.6,30.25,SSW,194,0.9,2.0,63,0.00,,,0.05,meteobridge,2013-12-26 19:00:00,
2013-12-26 14:05:00,48.0,36.0,30.24,South,188,0.0,0.9,63,0.00,,,0.05,meteobridge,2013-12-26 19:05:00,
2013-12-26 14:10:00,48.6,36.1,30.25,SSW,208,2.0,2.9,62,0.00,,,0.05,meteobridge,2013-12-26 19:10:00,
2013-12-26 14:15:00,48.9,35.2,30.24,North,0,2.0,2.0,59,0.00,,,0.05,meteobridge,2013-12-26 19:15:00,
2013-12-26 14:20:00,49.6,36.7,30.24,North,5,0.9,0.9,61,0.00,,,0.05,meteobridge,2013-12-26 19:20:00,
2013-12-26 14:26:00,50.4,36.5,30.24,SSW,206,0.9,0.9,59,0.00,,,0.05,meteobridge,2013-12-26 19:26:00,
2013-12-26 14:31:00,50.5,31.6,30.24,West,267,2.0,2.0,48,0.00,,,0.05,meteobridge,2013-12-26 19:31:00,
2013-12-26 14:36:00,50.7,31.3,30.24,SW,216,0.9,2.0,47,0.00,,,0.05,meteobridge,2013-12-26 19:36:00,
2013-12-26 14:41:00,51.1,30.6,30.24,SW,216,0.0,0.9,45,0.00,,,0.05,meteobridge,2013-12-26 19:41:00,
2013-12-26 14:46:00,51.3,31.6,30.24,SW,233,0.9,2.0,47,0.00,,,0.05,meteobridge,2013-12-26 19:46:00,
2013-12-26 14:51:00,51.3,30.0,30.24,SE,142,0.9,2.0,44,0.00,,,0.05,meteobridge,2013-12-26 19:51:00,
2013-12-26 14:56:00,51.3,34.2,30.24,SE,142,0.9,0.9,52,0.00,,,0.05,meteobridge,2013-12-26 19:56:00,
2013-12-26 15:02:00,51.3,30.0,30.24,West,270,0.0,2.0,44,0.00,,,0.05,meteobridge,2013-12-26 20:02:00,
2013-12-26 15:07:00,51.4,31.8,30.24,West,279,0.0,2.0,47,0.00,,,0.05,meteobridge,2013-12-26 20:07:00,
2013-12-26 15:12:00,51.4,31.3,30.24,West,274,0.9,0.9,46,0.00,,,0.05,meteobridge,2013-12-26 20:12:00,
2013-12-26 15:17:00,51.6,30.4,30.24,NW,322,0.0,0.9,44,0.00,,,0.05,meteobridge,2013-12-26 20:17:00,
2013-12-26 15:22:00,51.4,30.2,30.24,WSW,254,2.0,2.9,44,0.00,,,0.05,meteobridge,2013-12-26 20:22:00,
2013-12-26 15:27:00,51.1,31.1,30.24,WSW,252,0.9,0.9,46,0.00,,,0.05,meteobridge,2013-12-26 20:27:00,
2013-12-26 15:32:00,51.1,28.8,30.24,WSW,246,2.0,2.0,42,0.00,,,0.05,meteobridge,2013-12-26 20:32:00,
2013-12-26 15:37:00,51.1,27.7,30.24,WSW,246,0.0,0.9,40,0.00,,,0.05,meteobridge,2013-12-26 20:37:00,
2013-12-26 15:42:00,51.3,32.7,30.24,WSW,246,0.0,0.9,49,0.00,,,0.05,meteobridge,2013-12-26 20:42:00,
2013-12-26 15:47:00,51.6,29.3,30.24,WSW,246,0.9,2.0,42,0.00,,,0.05,meteobridge,2013-12-26 20:47:00,
2013-12-26 15:52:00,50.2,34.2,30.24,WSW,246,0.9,0.9,54,0.00,,,0.05,meteobridge,2013-12-26 20:52:00,
2013-12-26 15:58:00,49.5,33.4,30.24,WSW,246,0.0,0.9,54,0.00,,,0.05,meteobridge,2013-12-26 20:58:00,
2013-12-26 16:02:00,49.5,36.1,30.24,WSW,246,0.9,0.9,60,0.00,,,0.05,meteobridge,2013-12-26 21:02:00,
2013-12-26 16:08:00,48.7,33.3,30.25,WSW,246,0.9,0.9,55,0.00,,,0.05,meteobridge,2013-12-26 21:08:00,
2013-12-26 16:13:00,49.1,34.2,30.25,WSW,246,0.0,0.0,56,0.00,,,0.05,meteobridge,2013-12-26 21:13:00,
2013-12-26 16:18:00,48.6,31.8,30.25,WSW,246,0.0,0.0,52,0.00,,,0.05,meteobridge,2013-12-26 21:18:00,
2013-12-26 16:24:00,48.2,33.6,30.25,WSW,246,0.0,0.0,57,0.00,,,0.05,meteobridge,2013-12-26 21:24:00,
2013-12-26 16:29:00,47.7,35.6,30.25,WSW,246,0.0,0.9,63,0.00,,,0.05,meteobridge,2013-12-26 21:29:00,
2013-12-26 16:34:00,47.1,34.3,30.25,WSW,246,0.0,0.0,61,0.00,,,0.05,meteobridge,2013-12-26 21:34:00,
2013-12-26 16:39:00,46.4,33.6,30.25,WSW,246,0.0,0.0,61,0.00,,,0.05,meteobridge,2013-12-26 21:39:00,
2013-12-26 16:44:00,45.7,36.9,30.25,WSW,246,0.0,0.0,71,0.00,,,0.05,meteobridge,2013-12-26 21:44:00,
2013-12-26 16:49:00,45.0,35.4,30.25,WSW,246,0.0,0.0,69,0.00,,,0.05,meteobridge,2013-12-26 21:49:00,
2013-12-26 16:55:00,44.8,35.6,30.25,WSW,246,0.0,0.0,70,0.00,,,0.05,meteobridge,2013-12-26 21:55:00,
2013-12-26 17:00:00,43.9,35.8,30.25,WSW,246,0.0,0.0,73,0.00,,,0.05,meteobridge,2013-12-26 22:00:00,
2013-12-26 17:05:00,43.3,36.3,30.25,WSW,246,0.0,0.0,76,0.00,,,0.05,meteobridge,2013-12-26 22:05:00,
2013-12-26 17:10:00,42.4,36.1,30.26,WSW,246,0.0,0.0,78,0.00,,,0.05,meteobridge,2013-12-26 22:10:00,
2013-12-26 17:16:00,42.1,36.0,30.26,WSW,246,0.0,0.0,79,0.00,,,0.05,meteobridge,2013-12-26 22:16:00,
2013-12-26 17:21:00,41.5,35.8,30.26,WSW,246,0.0,0.0,80,0.00,,,0.05,meteobridge,2013-12-26 22:21:00,
2013-12-26 17:26:00,41.2,34.9,30.26,WSW,246,0.0,0.0,78,0.00,,,0.05,meteobridge,2013-12-26 22:26:00,
2013-12-26 17:31:00,40.5,34.5,30.26,WSW,246,0.0,0.0,79,0.00,,,0.05,meteobridge,2013-12-26 22:31:00,
2013-12-26 17:35:00,40.1,35.4,30.26,WSW,246,0.0,0.0,83,0.00,,,0.05,meteobridge,2013-12-26 22:35:00,
2013-12-26 17:41:00,39.7,34.7,30.26,WSW,246,0.0,0.0,82,0.00,,,0.05,meteobridge,2013-12-26 22:41:00,
2013-12-26 17:46:00,39.0,34.9,30.27,WSW,246,0.0,0.0,85,0.00,,,0.05,meteobridge,2013-12-26 22:46:00,
2013-12-26 17:51:00,38.8,34.2,30.27,WSW,246,0.0,0.0,83,0.00,,,0.05,meteobridge,2013-12-26 22:51:00,
2013-12-26 17:56:00,38.5,34.2,30.27,WSW,246,0.0,0.0,84,0.00,,,0.05,meteobridge,2013-12-26 22:56:00,
2013-12-26 18:01:00,37.9,34.3,30.27,WSW,246,0.0,0.0,87,0.00,,,0.05,meteobridge,2013-12-26 23:01:00,
2013-12-26 18:07:00,37.6,34.0,30.27,WSW,246,0.0,0.0,87,0.00,,,0.05,meteobridge,2013-12-26 23:07:00,
2013-12-26 18:12:00,37.6,33.3,30.27,WSW,246,0.0,0.0,84,0.00,,,0.05,meteobridge,2013-12-26 23:12:00,
2013-12-26 18:17:00,37.2,32.2,30.27,WSW,246,0.0,0.0,82,0.00,,,0.05,meteobridge,2013-12-26 23:17:00,
2013-12-26 18:22:00,37.2,32.5,30.27,WSW,246,0.0,0.9,83,0.00,,,0.05,meteobridge,2013-12-26 23:22:00,
2013-12-26 18:27:00,37.0,32.4,30.27,WSW,246,0.0,0.9,83,0.00,,,0.05,meteobridge,2013-12-26 23:27:00,
2013-12-26 18:32:00,36.9,32.5,30.28,WSW,246,0.0,0.0,84,0.00,,,0.05,meteobridge,2013-12-26 23:32:00,
2013-12-26 18:36:00,36.7,32.4,30.28,WSW,246,0.0,0.0,84,0.00,,,0.05,meteobridge,2013-12-26 23:36:00,
2013-12-26 18:41:00,36.1,32.7,30.28,WSW,246,0.0,0.0,87,0.00,,,0.05,meteobridge,2013-12-26 23:41:00,
2013-12-26 18:45:00,36.0,33.1,30.28,WSW,246,0.0,0.0,89,0.00,,,0.05,meteobridge,2013-12-26 23:45:00,
2013-12-26 18:50:00,35.6,32.7,30.29,WSW,246,0.9,0.9,89,0.00,,,0.05,meteobridge,2013-12-26 23:50:00,
2013-12-26 18:53:00,35.4,32.7,30.29,WSW,246,0.0,0.0,90,0.00,,,0.05,meteobridge,2013-12-26 23:53:00,
2013-12-26 18:58:00,35.2,32.4,30.28,WSW,246,0.0,0.0,89,0.00,,,0.05,meteobridge,2013-12-26 23:58:00,
2013-12-26 19:03:00,35.2,31.8,30.29,WSW,246,0.0,0.0,87,0.00,,,0.05,meteobridge,2013-12-27 00:03:00,
2013-12-26 19:08:00,35.2,32.0,30.29,WSW,246,0.0,0.0,88,0.00,,,0.05,meteobridge,2013-12-27 00:08:00,
2013-12-26 19:13:00,35.1,31.8,30.30,WSW,246,0.0,0.0,88,0.00,,,0.05,meteobridge,2013-12-27 00:13:00,
2013-12-26 19:18:00,34.7,31.5,30.30,WSW,246,0.0,0.0,88,0.00,,,0.05,meteobridge,2013-12-27 00:18:00,
2013-12-26 19:23:00,34.3,31.1,30.30,WSW,246,0.0,0.0,88,0.00,,,0.05,meteobridge,2013-12-27 00:23:00,
2013-12-26 19:29:00,34.0,31.1,30.30,WSW,246,0.0,0.0,89,0.00,,,0.05,meteobridge,2013-12-27 00:29:00,
2013-12-26 19:34:00,33.6,30.9,30.31,WSW,246,0.0,0.0,90,0.00,,,0.05,meteobridge,2013-12-27 00:34:00,
2013-12-26 19:39:00,33.6,30.7,30.30,WSW,246,0.9,0.9,89,0.00,,,0.05,meteobridge,2013-12-27 00:39:00,
2013-12-26 19:44:00,33.4,30.6,30.31,WSW,246,0.0,0.0,89,0.00,,,0.05,meteobridge,2013-12-27 00:44:00,
2013-12-26 19:49:00,33.3,30.6,30.30,WSW,246,0.0,0.9,90,0.00,,,0.05,meteobridge,2013-12-27 00:49:00,
2013-12-26 19:55:00,33.1,30.4,30.31,WSW,246,0.0,0.9,90,0.00,,,0.05,meteobridge,2013-12-27 00:55:00,
2013-12-26 20:00:00,32.7,30.2,30.31,WSW,246,0.0,0.0,90,0.00,,,0.05,meteobridge,2013-12-27 01:00:00,
2013-12-26 20:05:00,32.7,30.2,30.31,WSW,246,0.0,0.9,90,0.00,,,0.05,meteobridge,2013-12-27 01:05:00,
2013-12-26 20:10:00,32.5,30.0,30.31,WSW,246,0.0,0.9,90,0.00,,,0.05,meteobridge,2013-12-27 01:10:00,
2013-12-26 20:15:00,32.4,29.8,30.32,WSW,246,0.0,0.9,90,0.00,,,0.05,meteobridge,2013-12-27 01:15:00,
2013-12-26 20:20:00,32.2,29.7,30.32,WSW,246,0.0,0.0,90,0.00,,,0.05,meteobridge,2013-12-27 01:20:00,
2013-12-26 20:26:00,32.0,29.7,30.32,WSW,246,0.0,0.9,91,0.00,,,0.05,meteobridge,2013-12-27 01:26:00,
2013-12-26 20:31:00,31.8,29.5,30.32,WSW,246,0.0,0.9,91,0.00,,,0.05,meteobridge,2013-12-27 01:31:00,
2013-12-26 20:36:00,31.6,29.3,30.32,WSW,246,0.0,0.9,91,0.00,,,0.05,meteobridge,2013-12-27 01:36:00,
2013-12-26 20:41:00,31.6,29.3,30.32,WSW,246,0.0,0.9,91,0.00,,,0.05,meteobridge,2013-12-27 01:41:00,
2013-12-26 20:46:00,31.5,29.5,30.32,WSW,246,0.0,0.9,92,0.00,,,0.05,meteobridge,2013-12-27 01:46:00,
2013-12-26 20:51:00,31.3,29.3,30.32,WSW,246,0.0,0.0,92,0.00,,,0.05,meteobridge,2013-12-27 01:51:00,
2013-12-26 20:56:00,31.3,29.3,30.32,WSW,246,0.0,0.9,92,0.00,,,0.05,meteobridge,2013-12-27 01:56:00,
2013-12-26 21:02:00,30.9,28.9,30.33,WSW,246,0.0,0.9,92,0.00,,,0.05,meteobridge,2013-12-27 02:02:00,
2013-12-26 21:07:00,30.7,28.9,30.32,WSW,246,0.0,0.0,93,0.00,,,0.05,meteobridge,2013-12-27 02:07:00,
2013-12-26 21:12:00,30.7,28.9,30.33,WSW,246,0.0,0.9,93,0.00,,,0.05,meteobridge,2013-12-27 02:12:00,
2013-12-26 21:18:00,30.6,28.8,30.33,WSW,246,0.9,0.9,93,0.00,,,0.05,meteobridge,2013-12-27 02:18:00,
2013-12-26 21:23:00,30.6,28.8,30.33,WSW,246,0.9,0.9,93,0.00,,,0.05,meteobridge,2013-12-27 02:23:00,
2013-12-26 21:28:00,30.6,28.8,30.34,WSW,246,0.9,0.9,93,0.00,,,0.05,meteobridge,2013-12-27 02:28:00,
2013-12-26 21:33:00,30.4,28.6,30.34,WSW,246,0.0,0.0,93,0.00,,,0.05,meteobridge,2013-12-27 02:33:00,
2013-12-26 21:38:00,30.2,28.4,30.34,WSW,246,0.0,0.0,93,0.00,,,0.05,meteobridge,2013-12-27 02:38:00,
2013-12-26 21:43:00,30.0,28.6,30.34,WSW,246,0.0,0.0,94,0.00,,,0.05,meteobridge,2013-12-27 02:43:00,
2013-12-26 21:48:00,30.0,28.6,30.34,WSW,246,0.0,0.0,94,0.00,,,0.05,meteobridge,2013-12-27 02:48:00,
2013-12-26 21:53:00,29.8,28.4,30.35,WSW,246,0.0,0.0,94,0.00,,,0.05,meteobridge,2013-12-27 02:53:00,
2013-12-26 21:58:00,29.8,28.4,30.34,WSW,246,0.0,0.0,94,0.00,,,0.05,meteobridge,2013-12-27 02:58:00,
2013-12-26 22:04:00,29.8,28.4,30.34,WSW,246,0.0,0.0,94,0.00,,,0.05,meteobridge,2013-12-27 03:04:00,
2013-12-26 22:09:00,29.8,28.4,30.35,WSW,246,0.0,0.0,94,0.00,,,0.05,meteobridge,2013-12-27 03:09:00,
2013-12-26 22:14:00,29.8,28.4,30.34,WSW,246,0.0,0.0,94,0.00,,,0.05,meteobridge,2013-12-27 03:14:00,
2013-12-26 22:19:00,29.8,28.4,30.35,WSW,246,0.0,0.0,94,0.00,,,0.05,meteobridge,2013-12-27 03:19:00,
2013-12-26 22:24:00,29.8,28.4,30.35,WSW,246,0.0,0.0,94,0.00,,,0.05,meteobridge,2013-12-27 03:24:00,
2013-12-26 22:30:00,29.8,28.4,30.35,WSW,246,0.0,0.0,94,0.00,,,0.05,meteobridge,2013-12-27 03:30:00,
2013-12-26 22:35:00,29.8,28.4,30.35,WSW,246,0.0,0.0,94,0.00,,,0.05,meteobridge,2013-12-27 03:35:00,
2013-12-26 22:40:00,29.8,28.4,30.35,WSW,246,0.0,0.0,94,0.00,,,0.05,meteobridge,2013-12-27 03:40:00,
2013-12-26 22:45:00,30.0,28.6,30.35,WSW,246,0.0,0.0,94,0.00,,,0.05,meteobridge,2013-12-27 03:45:00,
2013-12-26 22:50:00,30.0,28.2,30.35,WSW,246,0.0,0.0,93,0.00,,,0.05,meteobridge,2013-12-27 03:50:00,
2013-12-26 22:56:00,30.0,28.2,30.35,WSW,246,0.0,0.0,93,0.00,,,0.05,meteobridge,2013-12-27 03:56:00,
2013-12-26 23:01:00,30.0,28.2,30.35,WSW,246,0.0,0.0,93,0.00,,,0.05,meteobridge,2013-12-27 04:01:00,
2013-12-26 23:06:00,30.0,28.2,30.35,WSW,246,0.0,0.0,93,0.00,,,0.05,meteobridge,2013-12-27 04:06:00,
2013-12-26 23:11:00,30.0,28.0,30.35,WSW,246,0.0,0.0,92,0.00,,,0.05,meteobridge,2013-12-27 04:11:00,
2013-12-26 23:16:00,30.0,28.0,30.35,WSW,246,0.0,0.0,92,0.00,,,0.05,meteobridge,2013-12-27 04:16:00,
2013-12-26 23:22:00,30.0,28.0,30.35,WSW,246,0.0,0.0,92,0.00,,,0.05,meteobridge,2013-12-27 04:22:00,
2013-12-26 23:27:00,30.0,28.0,30.35,WSW,246,0.0,0.0,92,0.00,,,0.05,meteobridge,2013-12-27 04:27:00,
2013-12-26 23:32:00,30.0,28.0,30.35,WSW,246,0.0,0.0,92,0.00,,,0.05,meteobridge,2013-12-27 04:32:00,
2013-12-26 23:37:00,29.8,27.9,30.36,WSW,246,0.0,0.0,92,0.00,,,0.05,meteobridge,2013-12-27 04:37:00,
2013-12-26 23:42:00,30.0,27.7,30.35,WSW,246,0.0,0.0,91,0.00,,,0.05,meteobridge,2013-12-27 04:42:00,
2013-12-26 23:48:00,30.0,27.7,30.35,WSW,246,0.0,0.0,91,0.00,,,0.05,meteobridge,2013-12-27 04:48:00,
2013-12-26 23:53:00,30.0,27.5,30.36,WSW,246,0.0,0.0,90,0.00,,,0.05,meteobridge,2013-12-27 04:53:00,
2013-12-26 23:58:00,30.0,27.5,30.36,WSW,246,0.0,0.0,90,0.00,,,0.05,meteobridge,2013-12-27 04:58:00,